sensor_id;sensor_type;location;lat;lon;timestamp;temperature;humidity
24410;DHT22;12543;53.364;-1.504;2022-07-01T00:01:45;12.90;99.90
24410;DHT22;12543;53.364;-1.504;2022-07-01T00:04:14;12.90;99.90
24410;DHT22;12543;53.364;-1.504;2022-07-01T00:06:41;13.00;99.90
24410;DHT22;12543;53.364;-1.504;2022-07-01T00:09:08;13.00;99.90
24410;DHT22;12543;53.364;-1.504;2022-07-01T00:11:36;13.00;99.90
24410;DHT22;12543;53.364;-1.504;2022-07-01T00:14:03;13.00;99.90
24410;DHT22;12543;53.364;-1.504;2022-07-01T00:16:30;13.00;99.90
24410;DHT22;12543;53.364;-1.504;2022-07-01T00:18:57;13.00;99.90
24410;DHT22;12543;53.364;-1.504;2022-07-01T00:21:24;13.00;99.90
24410;DHT22;12543;53.364;-1.504;2022-07-01T00:23:51;13.00;99.90
24410;DHT22;12543;53.364;-1.504;2022-07-01T00:26:19;13.00;99.90
24410;DHT22;12543;53.364;-1.504;2022-07-01T00:28:46;13.00;99.90
24410;DHT22;12543;53.364;-1.504;2022-07-01T00:31:13;13.00;99.90
24410;DHT22;12543;53.364;-1.504;2022-07-01T00:33:40;13.10;99.90
24410;DHT22;12543;53.364;-1.504;2022-07-01T00:36:07;13.10;99.90
24410;DHT22;12543;53.364;-1.504;2022-07-01T00:38:35;13.10;99.90
24410;DHT22;12543;53.364;-1.504;2022-07-01T00:41:02;13.10;99.90
24410;DHT22;12543;53.364;-1.504;2022-07-01T00:43:34;13.10;99.90
24410;DHT22;12543;53.364;-1.504;2022-07-01T00:46:20;13.10;99.90
24410;DHT22;12543;53.364;-1.504;2022-07-01T00:48:50;13.10;99.90
24410;DHT22;12543;53.364;-1.504;2022-07-01T00:51:17;13.10;99.90
24410;DHT22;12543;53.364;-1.504;2022-07-01T00:53:45;13.10;99.90
24410;DHT22;12543;53.364;-1.504;2022-07-01T00:56:12;13.10;99.90
24410;DHT22;12543;53.364;-1.504;2022-07-01T00:58:40;13.10;99.90
24410;DHT22;12543;53.364;-1.504;2022-07-01T01:01:07;13.10;99.90
24410;DHT22;12543;53.364;-1.504;2022-07-01T01:03:34;13.10;99.90
24410;DHT22;12543;53.364;-1.504;2022-07-01T01:06:03;13.10;99.90
24410;DHT22;12543;53.364;-1.504;2022-07-01T01:08:30;13.10;99.90
24410;DHT22;12543;53.364;-1.504;2022-07-01T01:10:58;13.10;99.90
24410;DHT22;12543;53.364;-1.504;2022-07-01T01:13:25;13.10;99.90
24410;DHT22;12543;53.364;-1.504;2022-07-01T01:15:53;13.10;99.90
24410;DHT22;12543;53.364;-1.504;2022-07-01T01:18:20;13.10;99.90
24410;DHT22;12543;53.364;-1.504;2022-07-01T01:20:47;13.10;99.90
24410;DHT22;12543;53.364;-1.504;2022-07-01T01:23:16;13.10;99.90
24410;DHT22;12543;53.364;-1.504;2022-07-01T01:25:43;13.10;99.90
24410;DHT22;12543;53.364;-1.504;2022-07-01T01:28:10;13.10;99.90
24410;DHT22;12543;53.364;-1.504;2022-07-01T01:30:37;13.10;99.90
24410;DHT22;12543;53.364;-1.504;2022-07-01T01:33:04;13.00;99.90
24410;DHT22;12543;53.364;-1.504;2022-07-01T01:35:35;13.00;99.90
24410;DHT22;12543;53.364;-1.504;2022-07-01T01:38:02;13.00;99.90
24410;DHT22;12543;53.364;-1.504;2022-07-01T01:40:29;13.00;99.90
24410;DHT22;12543;53.364;-1.504;2022-07-01T01:42:57;13.00;99.90
24410;DHT22;12543;53.364;-1.504;2022-07-01T01:45:24;13.00;99.90
24410;DHT22;12543;53.364;-1.504;2022-07-01T01:47:51;13.00;99.90
24410;DHT22;12543;53.364;-1.504;2022-07-01T01:50:18;12.90;99.90
24410;DHT22;12543;53.364;-1.504;2022-07-01T01:52:46;12.90;99.90
24410;DHT22;12543;53.364;-1.504;2022-07-01T01:55:14;12.90;99.90
24410;DHT22;12543;53.364;-1.504;2022-07-01T01:57:41;12.80;99.90
24410;DHT22;12543;53.364;-1.504;2022-07-01T02:00:09;12.80;99.90
24410;DHT22;12543;53.364;-1.504;2022-07-01T02:02:39;12.80;99.90
24410;DHT22;12543;53.364;-1.504;2022-07-01T02:05:10;12.80;99.90
24410;DHT22;12543;53.364;-1.504;2022-07-01T02:07:38;12.80;99.90
24410;DHT22;12543;53.364;-1.504;2022-07-01T02:10:06;12.80;99.90
24410;DHT22;12543;53.364;-1.504;2022-07-01T02:12:33;12.70;99.90
24410;DHT22;12543;53.364;-1.504;2022-07-01T02:15:00;12.70;99.90
24410;DHT22;12543;53.364;-1.504;2022-07-01T02:17:27;12.70;99.90
24410;DHT22;12543;53.364;-1.504;2022-07-01T02:19:54;12.70;99.90
24410;DHT22;12543;53.364;-1.504;2022-07-01T02:22:22;12.60;99.90
24410;DHT22;12543;53.364;-1.504;2022-07-01T02:24:48;12.60;99.90
24410;DHT22;12543;53.364;-1.504;2022-07-01T02:27:15;12.60;99.90
24410;DHT22;12543;53.364;-1.504;2022-07-01T02:29:43;12.60;99.90
24410;DHT22;12543;53.364;-1.504;2022-07-01T02:32:10;12.60;99.90
24410;DHT22;12543;53.364;-1.504;2022-07-01T02:34:37;12.50;99.90
24410;DHT22;12543;53.364;-1.504;2022-07-01T02:37:05;12.50;99.90
24410;DHT22;12543;53.364;-1.504;2022-07-01T02:39:32;12.50;99.90
24410;DHT22;12543;53.364;-1.504;2022-07-01T02:42:00;12.50;99.90
24410;DHT22;12543;53.364;-1.504;2022-07-01T02:44:45;12.50;99.90
24410;DHT22;12543;53.364;-1.504;2022-07-01T02:47:12;12.50;99.90
24410;DHT22;12543;53.364;-1.504;2022-07-01T02:49:39;12.40;99.90
24410;DHT22;12543;53.364;-1.504;2022-07-01T02:52:07;12.40;99.90
24410;DHT22;12543;53.364;-1.504;2022-07-01T02:54:34;12.40;99.90
24410;DHT22;12543;53.364;-1.504;2022-07-01T02:57:02;12.40;99.90
24410;DHT22;12543;53.364;-1.504;2022-07-01T02:59:29;12.40;99.90
24410;DHT22;12543;53.364;-1.504;2022-07-01T03:01:57;12.40;99.90
24410;DHT22;12543;53.364;-1.504;2022-07-01T03:04:24;12.40;99.90
24410;DHT22;12543;53.364;-1.504;2022-07-01T03:06:51;12.30;99.90
24410;DHT22;12543;53.364;-1.504;2022-07-01T03:09:18;12.30;99.90
24410;DHT22;12543;53.364;-1.504;2022-07-01T03:11:45;12.40;99.90
24410;DHT22;12543;53.364;-1.504;2022-07-01T03:14:12;12.30;99.90
24410;DHT22;12543;53.364;-1.504;2022-07-01T03:16:39;12.30;99.90
24410;DHT22;12543;53.364;-1.504;2022-07-01T03:19:06;12.30;99.90
24410;DHT22;12543;53.364;-1.504;2022-07-01T03:21:33;12.30;99.90
24410;DHT22;12543;53.364;-1.504;2022-07-01T03:24:00;12.40;99.90
24410;DHT22;12543;53.364;-1.504;2022-07-01T03:26:27;12.30;99.90
24410;DHT22;12543;53.364;-1.504;2022-07-01T03:28:55;12.30;99.90
24410;DHT22;12543;53.364;-1.504;2022-07-01T03:31:22;12.40;99.90
24410;DHT22;12543;53.364;-1.504;2022-07-01T03:33:49;12.40;99.90
24410;DHT22;12543;53.364;-1.504;2022-07-01T03:36:16;12.30;99.90
24410;DHT22;12543;53.364;-1.504;2022-07-01T03:38:44;12.40;99.90
24410;DHT22;12543;53.364;-1.504;2022-07-01T03:41:11;12.30;99.90
24410;DHT22;12543;53.364;-1.504;2022-07-01T03:43:38;12.40;99.90
24410;DHT22;12543;53.364;-1.504;2022-07-01T03:46:08;12.30;99.90
24410;DHT22;12543;53.364;-1.504;2022-07-01T03:48:35;12.30;99.90
24410;DHT22;12543;53.364;-1.504;2022-07-01T03:51:07;12.30;99.90
24410;DHT22;12543;53.364;-1.504;2022-07-01T03:53:35;12.30;99.90
24410;DHT22;12543;53.364;-1.504;2022-07-01T03:56:21;12.30;99.90
24410;DHT22;12543;53.364;-1.504;2022-07-01T03:58:48;12.30;99.90
24410;DHT22;12543;53.364;-1.504;2022-07-01T04:01:15;12.30;99.90
24410;DHT22;12543;53.364;-1.504;2022-07-01T04:03:42;12.30;99.90
24410;DHT22;12543;53.364;-1.504;2022-07-01T04:06:09;12.30;99.90
24410;DHT22;12543;53.364;-1.504;2022-07-01T04:08:36;12.30;99.90
24410;DHT22;12543;53.364;-1.504;2022-07-01T04:11:04;12.30;99.90
24410;DHT22;12543;53.364;-1.504;2022-07-01T04:13:35;12.30;99.90
24410;DHT22;12543;53.364;-1.504;2022-07-01T04:16:04;12.30;99.90
24410;DHT22;12543;53.364;-1.504;2022-07-01T04:18:32;12.30;99.90
24410;DHT22;12543;53.364;-1.504;2022-07-01T04:20:59;12.30;99.90
24410;DHT22;12543;53.364;-1.504;2022-07-01T04:23:45;12.30;99.90
24410;DHT22;12543;53.364;-1.504;2022-07-01T04:26:12;12.30;99.90
24410;DHT22;12543;53.364;-1.504;2022-07-01T04:28:59;12.30;99.90
24410;DHT22;12543;53.364;-1.504;2022-07-01T04:31:26;12.30;99.90
24410;DHT22;12543;53.364;-1.504;2022-07-01T04:33:53;12.30;99.90
24410;DHT22;12543;53.364;-1.504;2022-07-01T04:36:21;12.30;99.90
24410;DHT22;12543;53.364;-1.504;2022-07-01T04:38:48;12.40;99.90
24410;DHT22;12543;53.364;-1.504;2022-07-01T04:41:16;12.40;99.90
24410;DHT22;12543;53.364;-1.504;2022-07-01T04:44:02;12.40;99.90
24410;DHT22;12543;53.364;-1.504;2022-07-01T04:46:29;12.40;99.90
24410;DHT22;12543;53.364;-1.504;2022-07-01T04:48:56;12.40;99.90
24410;DHT22;12543;53.364;-1.504;2022-07-01T04:51:23;12.40;99.90
24410;DHT22;12543;53.364;-1.504;2022-07-01T04:53:51;12.40;99.90
24410;DHT22;12543;53.364;-1.504;2022-07-01T04:56:18;12.40;99.90
24410;DHT22;12543;53.364;-1.504;2022-07-01T04:58:46;12.40;99.90
24410;DHT22;12543;53.364;-1.504;2022-07-01T05:01:13;12.40;99.90
24410;DHT22;12543;53.364;-1.504;2022-07-01T05:03:40;12.40;99.90
24410;DHT22;12543;53.364;-1.504;2022-07-01T05:06:07;12.40;99.90
24410;DHT22;12543;53.364;-1.504;2022-07-01T05:08:34;12.40;99.90
24410;DHT22;12543;53.364;-1.504;2022-07-01T05:11:01;12.50;99.90
24410;DHT22;12543;53.364;-1.504;2022-07-01T05:13:28;12.50;99.90
24410;DHT22;12543;53.364;-1.504;2022-07-01T05:15:55;12.50;99.90
24410;DHT22;12543;53.364;-1.504;2022-07-01T05:18:22;12.50;99.90
24410;DHT22;12543;53.364;-1.504;2022-07-01T05:21:08;12.60;99.90
24410;DHT22;12543;53.364;-1.504;2022-07-01T05:23:53;12.60;99.90
24410;DHT22;12543;53.364;-1.504;2022-07-01T05:26:21;12.70;99.90
24410;DHT22;12543;53.364;-1.504;2022-07-01T05:28:48;12.70;99.90
24410;DHT22;12543;53.364;-1.504;2022-07-01T05:31:15;12.80;99.90
24410;DHT22;12543;53.364;-1.504;2022-07-01T05:33:42;12.80;99.90
24410;DHT22;12543;53.364;-1.504;2022-07-01T05:36:10;12.90;99.90
24410;DHT22;12543;53.364;-1.504;2022-07-01T05:38:37;12.90;99.90
24410;DHT22;12543;53.364;-1.504;2022-07-01T05:41:04;12.90;99.90
24410;DHT22;12543;53.364;-1.504;2022-07-01T05:43:32;13.00;99.90
24410;DHT22;12543;53.364;-1.504;2022-07-01T05:46:00;13.00;99.90
24410;DHT22;12543;53.364;-1.504;2022-07-01T05:48:28;13.10;99.90
24410;DHT22;12543;53.364;-1.504;2022-07-01T05:50:55;13.10;99.90
24410;DHT22;12543;53.364;-1.504;2022-07-01T05:53:23;13.10;99.90
24410;DHT22;12543;53.364;-1.504;2022-07-01T05:55:50;13.20;99.90
24410;DHT22;12543;53.364;-1.504;2022-07-01T05:58:17;13.20;99.90
24410;DHT22;12543;53.364;-1.504;2022-07-01T06:00:44;13.20;99.90
24410;DHT22;12543;53.364;-1.504;2022-07-01T06:03:13;13.20;99.90
24410;DHT22;12543;53.364;-1.504;2022-07-01T06:05:41;13.20;99.90
24410;DHT22;12543;53.364;-1.504;2022-07-01T06:08:09;13.30;99.90
24410;DHT22;12543;53.364;-1.504;2022-07-01T06:10:36;13.30;99.90
24410;DHT22;12543;53.364;-1.504;2022-07-01T06:13:04;13.30;99.90
24410;DHT22;12543;53.364;-1.504;2022-07-01T06:15:32;13.30;99.90
24410;DHT22;12543;53.364;-1.504;2022-07-01T06:17:59;13.30;99.90
24410;DHT22;12543;53.364;-1.504;2022-07-01T06:20:26;13.40;99.90
24410;DHT22;12543;53.364;-1.504;2022-07-01T06:22:54;13.40;99.90
24410;DHT22;12543;53.364;-1.504;2022-07-01T06:25:21;13.40;99.90
24410;DHT22;12543;53.364;-1.504;2022-07-01T06:27:48;13.50;99.90
24410;DHT22;12543;53.364;-1.504;2022-07-01T06:30:15;13.50;99.90
24410;DHT22;12543;53.364;-1.504;2022-07-01T06:32:42;13.50;99.90
24410;DHT22;12543;53.364;-1.504;2022-07-01T06:35:10;13.60;99.90
24410;DHT22;12543;53.364;-1.504;2022-07-01T06:37:37;13.60;99.90
24410;DHT22;12543;53.364;-1.504;2022-07-01T06:40:11;13.60;99.90
24410;DHT22;12543;53.364;-1.504;2022-07-01T06:42:38;13.70;99.90
24410;DHT22;12543;53.364;-1.504;2022-07-01T06:45:06;13.70;99.90
24410;DHT22;12543;53.364;-1.504;2022-07-01T06:47:33;13.70;99.90
24410;DHT22;12543;53.364;-1.504;2022-07-01T06:50:00;13.80;99.90
24410;DHT22;12543;53.364;-1.504;2022-07-01T06:52:30;13.80;99.90
24410;DHT22;12543;53.364;-1.504;2022-07-01T06:54:57;13.80;99.90
24410;DHT22;12543;53.364;-1.504;2022-07-01T06:57:25;13.80;99.90
24410;DHT22;12543;53.364;-1.504;2022-07-01T06:59:53;13.80;99.90
24410;DHT22;12543;53.364;-1.504;2022-07-01T07:02:21;13.90;99.90
24410;DHT22;12543;53.364;-1.504;2022-07-01T07:04:55;13.90;99.90
24410;DHT22;12543;53.364;-1.504;2022-07-01T07:07:27;14.00;99.90
24410;DHT22;12543;53.364;-1.504;2022-07-01T07:09:54;14.00;99.90
24410;DHT22;12543;53.364;-1.504;2022-07-01T07:12:24;14.10;99.90
24410;DHT22;12543;53.364;-1.504;2022-07-01T07:14:51;14.10;99.90
24410;DHT22;12543;53.364;-1.504;2022-07-01T07:17:19;14.20;99.90
24410;DHT22;12543;53.364;-1.504;2022-07-01T07:19:46;14.20;99.90
24410;DHT22;12543;53.364;-1.504;2022-07-01T07:22:13;14.20;99.90
24410;DHT22;12543;53.364;-1.504;2022-07-01T07:24:42;14.30;99.90
24410;DHT22;12543;53.364;-1.504;2022-07-01T07:27:09;14.30;99.90
24410;DHT22;12543;53.364;-1.504;2022-07-01T07:29:38;14.30;99.90
24410;DHT22;12543;53.364;-1.504;2022-07-01T07:32:05;14.30;99.90
24410;DHT22;12543;53.364;-1.504;2022-07-01T07:34:33;14.40;99.90
24410;DHT22;12543;53.364;-1.504;2022-07-01T07:37:08;14.40;99.90
24410;DHT22;12543;53.364;-1.504;2022-07-01T07:39:35;14.50;99.90
24410;DHT22;12543;53.364;-1.504;2022-07-01T07:42:02;14.50;99.90
24410;DHT22;12543;53.364;-1.504;2022-07-01T07:44:31;14.60;99.90
24410;DHT22;12543;53.364;-1.504;2022-07-01T07:46:59;14.70;99.90
24410;DHT22;12543;53.364;-1.504;2022-07-01T07:49:26;14.70;99.90
24410;DHT22;12543;53.364;-1.504;2022-07-01T07:51:53;14.80;99.90
24410;DHT22;12543;53.364;-1.504;2022-07-01T07:54:20;14.80;99.90
24410;DHT22;12543;53.364;-1.504;2022-07-01T07:56:47;14.90;99.90
24410;DHT22;12543;53.364;-1.504;2022-07-01T07:59:14;14.90;99.90
24410;DHT22;12543;53.364;-1.504;2022-07-01T08:01:41;14.90;99.90
24410;DHT22;12543;53.364;-1.504;2022-07-01T08:04:09;14.90;99.90
24410;DHT22;12543;53.364;-1.504;2022-07-01T08:06:36;14.90;99.90
24410;DHT22;12543;53.364;-1.504;2022-07-01T08:09:04;15.00;99.90
24410;DHT22;12543;53.364;-1.504;2022-07-01T08:11:31;15.00;99.90
24410;DHT22;12543;53.364;-1.504;2022-07-01T08:13:58;15.00;99.90
24410;DHT22;12543;53.364;-1.504;2022-07-01T08:16:25;15.10;99.90
24410;DHT22;12543;53.364;-1.504;2022-07-01T08:18:53;15.10;99.90
24410;DHT22;12543;53.364;-1.504;2022-07-01T08:21:20;15.20;99.90
24410;DHT22;12543;53.364;-1.504;2022-07-01T08:23:47;15.20;99.90
24410;DHT22;12543;53.364;-1.504;2022-07-01T08:26:14;15.20;99.90
24410;DHT22;12543;53.364;-1.504;2022-07-01T08:28:43;15.20;99.90
24410;DHT22;12543;53.364;-1.504;2022-07-01T08:31:10;15.30;99.90
24410;DHT22;12543;53.364;-1.504;2022-07-01T08:33:38;15.30;99.90
24410;DHT22;12543;53.364;-1.504;2022-07-01T08:36:06;15.30;99.90
24410;DHT22;12543;53.364;-1.504;2022-07-01T08:38:34;15.40;99.90
24410;DHT22;12543;53.364;-1.504;2022-07-01T08:41:01;15.40;99.90
24410;DHT22;12543;53.364;-1.504;2022-07-01T08:43:30;15.50;99.90
24410;DHT22;12543;53.364;-1.504;2022-07-01T08:46:01;15.50;99.90
24410;DHT22;12543;53.364;-1.504;2022-07-01T08:48:29;15.60;99.90
24410;DHT22;12543;53.364;-1.504;2022-07-01T08:50:56;15.60;99.90
24410;DHT22;12543;53.364;-1.504;2022-07-01T08:53:24;15.60;99.90
24410;DHT22;12543;53.364;-1.504;2022-07-01T08:55:51;15.70;99.90
24410;DHT22;12543;53.364;-1.504;2022-07-01T08:58:36;15.70;99.90
24410;DHT22;12543;53.364;-1.504;2022-07-01T09:01:18;15.80;99.90
24410;DHT22;12543;53.364;-1.504;2022-07-01T09:03:55;15.90;99.90
24410;DHT22;12543;53.364;-1.504;2022-07-01T09:06:26;15.90;99.90
24410;DHT22;12543;53.364;-1.504;2022-07-01T09:08:53;16.00;99.90
24410;DHT22;12543;53.364;-1.504;2022-07-01T09:11:24;16.10;99.90
24410;DHT22;12543;53.364;-1.504;2022-07-01T09:14:06;16.20;99.90
24410;DHT22;12543;53.364;-1.504;2022-07-01T09:16:41;16.30;99.90
24410;DHT22;12543;53.364;-1.504;2022-07-01T09:19:09;16.30;99.90
24410;DHT22;12543;53.364;-1.504;2022-07-01T09:21:36;16.30;99.90
24410;DHT22;12543;53.364;-1.504;2022-07-01T09:24:05;16.40;99.90
24410;DHT22;12543;53.364;-1.504;2022-07-01T09:29:44;16.60;99.90
24410;DHT22;12543;53.364;-1.504;2022-07-01T09:32:14;16.70;99.90
24410;DHT22;12543;53.364;-1.504;2022-07-01T09:34:45;16.70;99.90
24410;DHT22;12543;53.364;-1.504;2022-07-01T09:37:20;16.80;99.90
24410;DHT22;12543;53.364;-1.504;2022-07-01T09:39:52;16.90;99.90
24410;DHT22;12543;53.364;-1.504;2022-07-01T09:42:22;17.00;99.90
24410;DHT22;12543;53.364;-1.504;2022-07-01T09:45:00;17.00;99.90
24410;DHT22;12543;53.364;-1.504;2022-07-01T09:47:32;17.00;99.90
24410;DHT22;12543;53.364;-1.504;2022-07-01T09:50:01;17.10;99.90
24410;DHT22;12543;53.364;-1.504;2022-07-01T09:52:28;17.20;99.90
24410;DHT22;12543;53.364;-1.504;2022-07-01T09:55:03;17.20;99.90
24410;DHT22;12543;53.364;-1.504;2022-07-01T09:57:30;17.30;99.90
24410;DHT22;12543;53.364;-1.504;2022-07-01T09:59:57;17.40;99.90
24410;DHT22;12543;53.364;-1.504;2022-07-01T10:02:27;17.40;99.90
24410;DHT22;12543;53.364;-1.504;2022-07-01T10:05:09;17.40;99.90
24410;DHT22;12543;53.364;-1.504;2022-07-01T10:08:41;17.40;99.90
24410;DHT22;12543;53.364;-1.504;2022-07-01T10:13:16;17.40;99.90
24410;DHT22;12543;53.364;-1.504;2022-07-01T10:15:44;17.40;99.90
24410;DHT22;12543;53.364;-1.504;2022-07-01T10:18:23;17.40;99.90
24410;DHT22;12543;53.364;-1.504;2022-07-01T10:20:52;17.40;99.90
24410;DHT22;12543;53.364;-1.504;2022-07-01T10:23:21;17.30;99.90
24410;DHT22;12543;53.364;-1.504;2022-07-01T10:25:50;17.30;99.90
24410;DHT22;12543;53.364;-1.504;2022-07-01T10:28:22;17.30;99.90
24410;DHT22;12543;53.364;-1.504;2022-07-01T10:31:03;17.20;99.90
24410;DHT22;12543;53.364;-1.504;2022-07-01T10:36:08;17.20;99.90
24410;DHT22;12543;53.364;-1.504;2022-07-01T10:41:39;17.20;99.90
24410;DHT22;12543;53.364;-1.504;2022-07-01T10:44:09;17.20;99.90
24410;DHT22;12543;53.364;-1.504;2022-07-01T10:46:50;17.20;99.90
24410;DHT22;12543;53.364;-1.504;2022-07-01T10:52:13;17.20;99.90
24410;DHT22;12543;53.364;-1.504;2022-07-01T10:54:46;17.10;99.90
24410;DHT22;12543;53.364;-1.504;2022-07-01T11:02:31;17.10;99.90
24410;DHT22;12543;53.364;-1.504;2022-07-01T11:05:04;17.20;99.90
24410;DHT22;12543;53.364;-1.504;2022-07-01T11:07:34;17.30;99.90
24410;DHT22;12543;53.364;-1.504;2022-07-01T11:10:07;17.40;99.90
24410;DHT22;12543;53.364;-1.504;2022-07-01T11:12:34;17.60;99.90
24410;DHT22;12543;53.364;-1.504;2022-07-01T11:15:02;17.80;99.90
24410;DHT22;12543;53.364;-1.504;2022-07-01T11:17:33;17.90;99.90
24410;DHT22;12543;53.364;-1.504;2022-07-01T11:20:01;18.00;99.90
24410;DHT22;12543;53.364;-1.504;2022-07-01T11:22:33;18.10;99.90
24410;DHT22;12543;53.364;-1.504;2022-07-01T11:25:03;18.20;99.90
24410;DHT22;12543;53.364;-1.504;2022-07-01T11:27:32;18.30;99.90
24410;DHT22;12543;53.364;-1.504;2022-07-01T11:30:06;18.30;99.90
24410;DHT22;12543;53.364;-1.504;2022-07-01T11:32:38;18.40;99.90
24410;DHT22;12543;53.364;-1.504;2022-07-01T11:35:06;18.40;99.90
24410;DHT22;12543;53.364;-1.504;2022-07-01T11:38:17;18.30;99.90
24410;DHT22;12543;53.364;-1.504;2022-07-01T11:41:08;18.20;99.90
24410;DHT22;12543;53.364;-1.504;2022-07-01T11:43:37;18.10;99.90
24410;DHT22;12543;53.364;-1.504;2022-07-01T11:46:07;18.10;99.90
24410;DHT22;12543;53.364;-1.504;2022-07-01T11:48:39;18.10;99.90
24410;DHT22;12543;53.364;-1.504;2022-07-01T11:51:13;18.10;99.90
24410;DHT22;12543;53.364;-1.504;2022-07-01T11:53:45;18.10;99.90
24410;DHT22;12543;53.364;-1.504;2022-07-01T11:56:13;18.00;99.90
24410;DHT22;12543;53.364;-1.504;2022-07-01T11:58:51;18.00;99.90
24410;DHT22;12543;53.364;-1.504;2022-07-01T12:01:23;18.00;99.90
24410;DHT22;12543;53.364;-1.504;2022-07-01T12:03:51;17.90;99.90
24410;DHT22;12543;53.364;-1.504;2022-07-01T12:06:19;17.90;99.90
24410;DHT22;12543;53.364;-1.504;2022-07-01T12:08:47;17.80;99.90
24410;DHT22;12543;53.364;-1.504;2022-07-01T12:11:15;17.80;99.90
24410;DHT22;12543;53.364;-1.504;2022-07-01T12:13:44;17.80;99.90
24410;DHT22;12543;53.364;-1.504;2022-07-01T12:16:13;17.80;99.90
24410;DHT22;12543;53.364;-1.504;2022-07-01T12:18:55;17.70;99.90
24410;DHT22;12543;53.364;-1.504;2022-07-01T12:21:24;17.70;99.90
24410;DHT22;12543;53.364;-1.504;2022-07-01T12:24:04;17.70;99.90
24410;DHT22;12543;53.364;-1.504;2022-07-01T12:26:32;17.80;99.90
24410;DHT22;12543;53.364;-1.504;2022-07-01T12:28:59;17.90;99.90
24410;DHT22;12543;53.364;-1.504;2022-07-01T12:31:26;18.00;99.90
24410;DHT22;12543;53.364;-1.504;2022-07-01T12:33:53;18.10;99.90
24410;DHT22;12543;53.364;-1.504;2022-07-01T12:36:20;18.40;99.90
24410;DHT22;12543;53.364;-1.504;2022-07-01T12:39:00;18.80;99.90
24410;DHT22;12543;53.364;-1.504;2022-07-01T12:41:33;19.30;99.90
24410;DHT22;12543;53.364;-1.504;2022-07-01T12:44:06;19.70;99.90
24410;DHT22;12543;53.364;-1.504;2022-07-01T12:46:33;19.90;99.90
24410;DHT22;12543;53.364;-1.504;2022-07-01T12:49:00;19.90;99.90
24410;DHT22;12543;53.364;-1.504;2022-07-01T12:51:32;19.90;99.90
24410;DHT22;12543;53.364;-1.504;2022-07-01T12:53:59;19.80;99.90
24410;DHT22;12543;53.364;-1.504;2022-07-01T12:56:28;19.70;99.90
24410;DHT22;12543;53.364;-1.504;2022-07-01T12:58:55;19.50;99.90
24410;DHT22;12543;53.364;-1.504;2022-07-01T13:01:23;19.40;99.90
24410;DHT22;12543;53.364;-1.504;2022-07-01T13:03:51;19.20;99.90
24410;DHT22;12543;53.364;-1.504;2022-07-01T13:06:18;19.00;99.90
24410;DHT22;12543;53.364;-1.504;2022-07-01T13:08:45;18.80;99.90
24410;DHT22;12543;53.364;-1.504;2022-07-01T13:11:12;18.70;99.90
24410;DHT22;12543;53.364;-1.504;2022-07-01T13:13:39;18.60;99.90
24410;DHT22;12543;53.364;-1.504;2022-07-01T13:16:07;18.40;99.90
24410;DHT22;12543;53.364;-1.504;2022-07-01T13:18:34;18.20;99.90
24410;DHT22;12543;53.364;-1.504;2022-07-01T13:21:01;18.00;99.90
24410;DHT22;12543;53.364;-1.504;2022-07-01T13:23:28;17.90;99.90
24410;DHT22;12543;53.364;-1.504;2022-07-01T13:25:58;17.80;99.90
24410;DHT22;12543;53.364;-1.504;2022-07-01T13:28:25;17.70;99.90
24410;DHT22;12543;53.364;-1.504;2022-07-01T13:30:52;17.60;99.90
24410;DHT22;12543;53.364;-1.504;2022-07-01T13:33:19;17.50;99.90
24410;DHT22;12543;53.364;-1.504;2022-07-01T13:35:46;17.50;99.90
24410;DHT22;12543;53.364;-1.504;2022-07-01T13:38:14;17.60;99.90
24410;DHT22;12543;53.364;-1.504;2022-07-01T13:40:41;17.60;99.90
24410;DHT22;12543;53.364;-1.504;2022-07-01T13:43:12;17.60;99.90
24410;DHT22;12543;53.364;-1.504;2022-07-01T13:45:40;17.60;99.90
24410;DHT22;12543;53.364;-1.504;2022-07-01T13:48:07;17.50;99.90
24410;DHT22;12543;53.364;-1.504;2022-07-01T13:50:34;17.40;99.90
24410;DHT22;12543;53.364;-1.504;2022-07-01T13:53:01;17.30;99.90
24410;DHT22;12543;53.364;-1.504;2022-07-01T13:55:28;17.20;99.90
24410;DHT22;12543;53.364;-1.504;2022-07-01T13:57:55;17.20;99.90
24410;DHT22;12543;53.364;-1.504;2022-07-01T14:00:22;17.00;99.90
24410;DHT22;12543;53.364;-1.504;2022-07-01T14:02:49;17.00;99.90
24410;DHT22;12543;53.364;-1.504;2022-07-01T14:05:16;16.90;99.90
24410;DHT22;12543;53.364;-1.504;2022-07-01T14:07:43;16.80;99.90
24410;DHT22;12543;53.364;-1.504;2022-07-01T14:10:12;16.70;99.90
24410;DHT22;12543;53.364;-1.504;2022-07-01T14:12:39;16.70;99.90
24410;DHT22;12543;53.364;-1.504;2022-07-01T14:15:06;16.60;99.90
24410;DHT22;12543;53.364;-1.504;2022-07-01T14:17:33;16.60;99.90
24410;DHT22;12543;53.364;-1.504;2022-07-01T14:20:00;16.50;99.90
24410;DHT22;12543;53.364;-1.504;2022-07-01T14:22:28;16.50;99.90
24410;DHT22;12543;53.364;-1.504;2022-07-01T14:24:55;16.50;99.90
24410;DHT22;12543;53.364;-1.504;2022-07-01T14:27:22;16.50;99.90
24410;DHT22;12543;53.364;-1.504;2022-07-01T14:29:49;16.50;99.90
24410;DHT22;12543;53.364;-1.504;2022-07-01T14:32:23;16.50;99.90
24410;DHT22;12543;53.364;-1.504;2022-07-01T14:34:55;16.50;99.90
24410;DHT22;12543;53.364;-1.504;2022-07-01T14:37:22;16.60;99.90
24410;DHT22;12543;53.364;-1.504;2022-07-01T14:39:49;16.50;99.90
24410;DHT22;12543;53.364;-1.504;2022-07-01T14:42:20;16.50;99.90
24410;DHT22;12543;53.364;-1.504;2022-07-01T14:44:47;16.50;99.90
24410;DHT22;12543;53.364;-1.504;2022-07-01T14:47:16;16.50;99.90
24410;DHT22;12543;53.364;-1.504;2022-07-01T14:49:43;16.40;99.90
24410;DHT22;12543;53.364;-1.504;2022-07-01T14:52:11;16.40;99.90
24410;DHT22;12543;53.364;-1.504;2022-07-01T14:54:38;16.40;99.90
24410;DHT22;12543;53.364;-1.504;2022-07-01T14:57:06;16.40;99.90
24410;DHT22;12543;53.364;-1.504;2022-07-01T14:59:34;16.40;99.90
24410;DHT22;12543;53.364;-1.504;2022-07-01T15:02:02;16.40;99.90
24410;DHT22;12543;53.364;-1.504;2022-07-01T15:04:30;16.40;99.90
24410;DHT22;12543;53.364;-1.504;2022-07-01T15:06:58;16.40;99.90
24410;DHT22;12543;53.364;-1.504;2022-07-01T15:09:26;16.40;99.90
24410;DHT22;12543;53.364;-1.504;2022-07-01T15:11:53;16.30;99.90
24410;DHT22;12543;53.364;-1.504;2022-07-01T15:14:21;16.30;99.90
24410;DHT22;12543;53.364;-1.504;2022-07-01T15:16:48;16.30;99.90
24410;DHT22;12543;53.364;-1.504;2022-07-01T15:19:16;16.30;99.90
24410;DHT22;12543;53.364;-1.504;2022-07-01T15:21:43;16.30;99.90
24410;DHT22;12543;53.364;-1.504;2022-07-01T15:24:10;16.40;99.90
24410;DHT22;12543;53.364;-1.504;2022-07-01T15:26:38;16.40;99.90
24410;DHT22;12543;53.364;-1.504;2022-07-01T15:29:05;16.50;99.90
24410;DHT22;12543;53.364;-1.504;2022-07-01T15:31:32;16.50;99.90
24410;DHT22;12543;53.364;-1.504;2022-07-01T15:34:16;16.60;99.90
24410;DHT22;12543;53.364;-1.504;2022-07-01T15:36:43;16.70;99.90
24410;DHT22;12543;53.364;-1.504;2022-07-01T15:39:14;16.80;99.90
24410;DHT22;12543;53.364;-1.504;2022-07-01T15:41:42;16.80;99.90
24410;DHT22;12543;53.364;-1.504;2022-07-01T15:44:11;16.90;99.90
24410;DHT22;12543;53.364;-1.504;2022-07-01T15:46:39;16.90;99.90